Time,TemperatureF,DewpointF,PressureIn,WindDirection,WindDirectionDegrees,WindSpeedMPH,WindSpeedGustMPH,Humidity,HourlyPrecipIn,Conditions,Clouds,dailyrainin,SolarRadiationWatts/m^2,SoftwareType,DateUTC
2013-09-14 00:05:00,53.7,51.0,29.94,NNE,19,0.0,2.0,89,0.00,,,0.00,0,weatherlink.com 1.10,2013-09-14 04:05:00,
2013-09-14 00:20:00,53.4,51.0,29.94,NNE,30,0.0,1.0,90,0.00,,,0.00,0,weatherlink.com 1.10,2013-09-14 04:20:00,
2013-09-14 00:35:00,53.3,51.0,29.95,North,355,0.0,2.0,91,0.00,,,0.00,0,weatherlink.com 1.10,2013-09-14 04:35:00,
2013-09-14 00:50:00,53.2,51.0,29.95,NNW,346,0.0,1.0,91,0.00,,,0.00,0,weatherlink.com 1.10,2013-09-14 04:50:00,
2013-09-14 01:05:00,53.1,51.0,29.95,North,360,0.0,1.0,91,0.00,,,0.00,0,weatherlink.com 1.10,2013-09-14 05:05:00,
2013-09-14 01:20:00,53.3,51.0,29.95,North,355,0.0,2.0,91,0.00,,,0.00,0,weatherlink.com 1.10,2013-09-14 05:20:00,
2013-09-14 01:35:00,53.5,51.0,29.95,NNW,345,0.0,2.0,91,0.00,,,0.00,16,weatherlink.com 1.10,2013-09-14 05:35:00,
2013-09-14 01:50:00,53.7,51.0,29.95,NNE,15,0.0,1.0,91,0.00,,,0.00,23,weatherlink.com 1.10,2013-09-14 05:50:00,
2013-09-14 02:05:00,53.9,51.0,29.95,North,360,0.0,1.0,91,0.00,,,0.00,35,weatherlink.com 1.10,2013-09-14 06:05:00,
2013-09-14 02:20:00,54.1,51.0,29.94,ENE,61,0.0,2.0,90,0.00,,,0.00,47,weatherlink.com 1.10,2013-09-14 06:20:00,
2013-09-14 02:50:00,55.2,52.0,29.94,NNW,341,0.0,2.0,89,0.00,,,0.00,83,weatherlink.com 1.10,2013-09-14 06:50:00,
2013-09-14 03:05:00,55.8,52.0,29.94,North,360,0.0,1.0,88,0.00,,,0.00,134,weatherlink.com 1.10,2013-09-14 07:05:00,
2013-09-14 03:21:00,56.4,53.0,29.94,NNE,33,0.0,3.0,87,0.00,,,0.00,114,weatherlink.com 1.10,2013-09-14 07:21:00,
2013-09-14 03:36:00,57.0,53.0,29.94,ESE,102,0.0,3.0,87,0.00,,,0.00,192,weatherlink.com 1.10,2013-09-14 07:36:00,
2013-09-14 03:51:00,58.8,54.0,29.95,ENE,57,0.0,0.0,84,0.00,,,0.00,209,weatherlink.com 1.10,2013-09-14 07:51:00,
2013-09-14 04:06:00,60.4,55.0,29.95,NE,54,0.0,2.0,82,0.00,,,0.00,281,weatherlink.com 1.10,2013-09-14 08:06:00,
2013-09-14 04:21:00,62.6,55.0,29.94,NW,319,0.0,4.0,77,0.00,,,0.00,468,weatherlink.com 1.10,2013-09-14 08:21:00,
2013-09-14 04:37:00,62.8,55.0,29.94,NNW,334,0.0,4.0,75,0.00,,,0.00,290,weatherlink.com 1.10,2013-09-14 08:37:00,
2013-09-14 04:51:00,62.0,54.0,29.94,East,98,1.0,3.0,76,0.00,,,0.00,251,weatherlink.com 1.10,2013-09-14 08:51:00,
2013-09-14 05:06:00,62.2,54.0,29.93,North,355,2.0,4.0,75,0.00,,,0.00,225,weatherlink.com 1.10,2013-09-14 09:06:00,
2013-09-14 05:21:00,63.2,56.0,29.93,NNW,334,0.0,4.0,77,0.00,,,0.00,364,weatherlink.com 1.10,2013-09-14 09:21:00,
2013-09-14 05:36:00,66.9,57.0,29.93,NNW,348,0.0,6.0,71,0.00,,,0.00,773,weatherlink.com 1.10,2013-09-14 09:36:00,
2013-09-14 05:51:00,67.5,57.0,29.93,NW,311,0.0,3.0,69,0.00,,,0.00,719,weatherlink.com 1.10,2013-09-14 09:51:00,
2013-09-14 06:06:00,67.9,57.0,29.92,NNW,329,0.0,8.0,68,0.00,,,0.00,772,weatherlink.com 1.10,2013-09-14 10:06:00,
2013-09-14 06:21:00,68.9,57.0,29.92,NNW,339,0.0,3.0,67,0.00,,,0.00,742,weatherlink.com 1.10,2013-09-14 10:21:00,
2013-09-14 06:36:00,69.2,55.0,29.92,NNE,17,0.0,5.0,61,0.00,,,0.00,726,weatherlink.com 1.10,2013-09-14 10:36:00,
2013-09-14 06:51:00,69.5,55.0,29.92,NNW,342,3.0,6.0,61,0.00,,,0.00,708,weatherlink.com 1.10,2013-09-14 10:51:00,
2013-09-14 07:06:00,67.4,52.0,29.92,North,351,1.0,6.0,59,0.00,,,0.00,773,weatherlink.com 1.10,2013-09-14 11:06:00,
2013-09-14 07:21:00,68.4,51.0,29.92,North,355,3.0,11.0,54,0.00,,,0.00,171,weatherlink.com 1.10,2013-09-14 11:21:00,
2013-09-14 07:36:00,69.1,52.0,29.91,North,360,3.0,8.0,55,0.00,,,0.00,738,weatherlink.com 1.10,2013-09-14 11:36:00,
2013-09-14 07:51:00,70.8,53.0,29.91,North,11,0.0,4.0,53,0.00,,,0.00,710,weatherlink.com 1.10,2013-09-14 11:51:00,
2013-09-14 08:06:00,71.3,53.0,29.91,NNW,333,5.0,5.0,53,0.00,,,0.00,668,weatherlink.com 1.10,2013-09-14 12:06:00,
2013-09-14 08:21:00,69.0,53.0,29.90,NNW,341,0.0,5.0,58,0.00,,,0.00,88,weatherlink.com 1.10,2013-09-14 12:21:00,
2013-09-14 08:36:00,69.9,53.0,29.90,North,355,1.0,5.0,55,0.00,,,0.00,675,weatherlink.com 1.10,2013-09-14 12:36:00,
2013-09-14 08:51:00,69.3,50.0,29.89,NNW,343,5.0,6.0,51,0.00,,,0.00,128,weatherlink.com 1.10,2013-09-14 12:51:00,
2013-09-14 09:06:00,69.0,50.0,29.89,NNW,338,1.0,6.0,51,0.00,,,0.00,104,weatherlink.com 1.10,2013-09-14 13:06:00,
2013-09-14 09:21:00,70.9,51.0,29.89,NNE,20,0.0,5.0,50,0.00,,,0.00,638,weatherlink.com 1.10,2013-09-14 13:21:00,
2013-09-14 09:36:00,73.0,50.0,29.89,NW,311,0.0,2.0,45,0.00,,,0.00,640,weatherlink.com 1.10,2013-09-14 13:36:00,
2013-09-14 09:52:00,73.2,52.0,29.89,NNE,26,0.0,7.0,48,0.00,,,0.00,640,weatherlink.com 1.10,2013-09-14 13:52:00,
2013-09-14 10:07:00,72.4,53.0,29.88,South,169,1.0,4.0,51,0.00,,,0.00,230,weatherlink.com 1.10,2013-09-14 14:07:00,
2013-09-14 10:22:00,70.1,53.0,29.88,SSW,205,0.0,3.0,55,0.00,,,0.00,141,weatherlink.com 1.10,2013-09-14 14:22:00,
2013-09-14 10:37:00,69.6,54.0,29.88,SW,225,0.0,3.0,59,0.00,,,0.00,506,weatherlink.com 1.10,2013-09-14 14:37:00,
2013-09-14 10:52:00,70.8,54.0,29.88,SSE,150,0.0,6.0,55,0.00,,,0.00,385,weatherlink.com 1.10,2013-09-14 14:52:00,
2013-09-14 11:07:00,71.4,53.0,29.88,SSW,213,3.0,7.0,53,0.00,,,0.00,355,weatherlink.com 1.10,2013-09-14 15:07:00,
2013-09-14 11:22:00,70.2,55.0,29.88,SSW,206,0.0,7.0,59,0.00,,,0.00,279,weatherlink.com 1.10,2013-09-14 15:22:00,
2013-09-14 11:37:00,68.9,55.0,29.87,WSW,238,0.0,6.0,61,0.00,,,0.00,223,weatherlink.com 1.10,2013-09-14 15:37:00,
2013-09-14 11:52:00,67.9,54.0,29.87,SE,134,0.0,2.0,61,0.00,,,0.00,178,weatherlink.com 1.10,2013-09-14 15:52:00,
2013-09-14 12:07:00,67.0,55.0,29.87,WSW,242,0.0,2.0,66,0.00,,,0.00,33,weatherlink.com 1.10,2013-09-14 16:07:00,
2013-09-14 12:22:00,66.1,54.0,29.87,SSW,211,0.0,4.0,66,0.00,,,0.00,23,weatherlink.com 1.10,2013-09-14 16:22:00,
2013-09-14 12:37:00,64.9,54.0,29.87,WSW,248,0.0,3.0,69,0.00,,,0.00,16,weatherlink.com 1.10,2013-09-14 16:37:00,
2013-09-14 12:52:00,63.7,55.0,29.88,WSW,240,0.0,4.0,72,0.00,,,0.00,9,weatherlink.com 1.10,2013-09-14 16:52:00,
2013-09-14 13:08:00,62.7,54.0,29.88,SW,219,0.0,5.0,74,0.00,,,0.00,5,weatherlink.com 1.10,2013-09-14 17:08:00,
2013-09-14 13:22:00,61.8,55.0,29.88,SW,221,0.0,3.0,77,0.00,,,0.00,0,weatherlink.com 1.10,2013-09-14 17:22:00,
2013-09-14 13:37:00,60.9,54.0,29.88,SW,222,0.0,2.0,79,0.00,,,0.00,0,weatherlink.com 1.10,2013-09-14 17:37:00,
2013-09-14 13:52:00,60.0,55.0,29.88,SSW,207,0.0,2.0,82,0.00,,,0.00,0,weatherlink.com 1.10,2013-09-14 17:52:00,
2013-09-14 14:07:00,59.1,54.0,29.89,SW,222,1.0,3.0,84,0.00,,,0.00,0,weatherlink.com 1.10,2013-09-14 18:07:00,
2013-09-14 14:22:00,59.0,54.0,29.89,SW,232,2.0,4.0,84,0.00,,,0.00,0,weatherlink.com 1.10,2013-09-14 18:22:00,
2013-09-14 14:37:00,58.7,54.0,29.90,SSW,202,0.0,2.0,85,0.00,,,0.00,0,weatherlink.com 1.10,2013-09-14 18:37:00,
2013-09-14 14:52:00,58.2,54.0,29.90,SSW,194,0.0,2.0,87,0.00,,,0.00,0,weatherlink.com 1.10,2013-09-14 18:52:00,
2013-09-14 15:07:00,57.9,54.0,29.90,SSW,200,0.0,3.0,88,0.00,,,0.00,0,weatherlink.com 1.10,2013-09-14 19:07:00,
2013-09-14 15:22:00,57.8,54.0,29.90,South,173,0.0,3.0,88,0.00,,,0.00,0,weatherlink.com 1.10,2013-09-14 19:22:00,
2013-09-14 15:37:00,57.6,54.0,29.90,South,185,1.0,3.0,88,0.00,,,0.00,0,weatherlink.com 1.10,2013-09-14 19:37:00,
2013-09-14 15:52:00,57.9,54.0,29.89,SW,222,0.0,7.0,88,0.00,,,0.00,0,weatherlink.com 1.10,2013-09-14 19:52:00,
2013-09-14 16:07:00,58.2,55.0,29.90,SW,218,0.0,4.0,88,0.00,,,0.00,0,weatherlink.com 1.10,2013-09-14 20:07:00,
2013-09-14 16:22:00,58.5,55.0,29.89,SSW,199,0.0,3.0,88,0.00,,,0.00,0,weatherlink.com 1.10,2013-09-14 20:22:00,
2013-09-14 16:37:00,58.6,55.0,29.89,SSW,209,3.0,4.0,88,0.00,,,0.00,0,weatherlink.com 1.10,2013-09-14 20:37:00,
2013-09-14 16:52:00,58.8,56.0,29.89,SE,132,0.0,3.0,89,0.00,,,0.00,0,weatherlink.com 1.10,2013-09-14 20:52:00,
2013-09-14 17:07:00,58.8,56.0,29.89,SSW,204,0.0,4.0,89,0.00,,,0.00,0,weatherlink.com 1.10,2013-09-14 21:07:00,
2013-09-14 17:22:00,58.6,55.0,29.89,SSW,197,0.0,3.0,89,0.00,,,0.00,0,weatherlink.com 1.10,2013-09-14 21:22:00,
2013-09-14 17:37:00,58.5,56.0,29.89,South,184,1.0,5.0,90,0.00,,,0.00,0,weatherlink.com 1.10,2013-09-14 21:37:00,
2013-09-14 17:52:00,58.6,55.0,29.89,SSW,198,1.0,6.0,89,0.00,,,0.00,0,weatherlink.com 1.10,2013-09-14 21:52:00,
2013-09-14 18:07:00,58.5,56.0,29.89,SSW,203,0.0,3.0,90,0.00,,,0.00,0,weatherlink.com 1.10,2013-09-14 22:07:00,
2013-09-14 18:22:00,57.9,55.0,29.89,SW,219,0.0,4.0,90,0.00,,,0.00,0,weatherlink.com 1.10,2013-09-14 22:22:00,
2013-09-14 18:37:00,57.5,55.0,29.89,SSE,162,0.0,2.0,91,0.00,,,0.00,0,weatherlink.com 1.10,2013-09-14 22:37:00,
2013-09-14 18:52:00,57.2,55.0,29.88,SSW,195,0.0,2.0,92,0.00,,,0.00,0,weatherlink.com 1.10,2013-09-14 22:52:00,
2013-09-14 19:07:00,57.0,55.0,29.88,South,182,0.0,1.0,92,0.00,,,0.00,0,weatherlink.com 1.10,2013-09-14 23:07:00,
2013-09-14 19:22:00,56.8,55.0,29.88,SSW,207,0.0,1.0,92,0.00,,,0.00,0,weatherlink.com 1.10,2013-09-14 23:22:00,
2013-09-14 19:37:00,56.7,55.0,29.87,SSW,199,0.0,1.0,92,0.00,,,0.00,0,weatherlink.com 1.10,2013-09-14 23:37:00,
2013-09-14 19:52:00,56.6,54.0,29.88,SSW,198,1.0,1.0,92,0.00,,,0.00,0,weatherlink.com 1.10,2013-09-14 23:52:00,
2013-09-14 20:07:00,56.6,54.0,29.88,South,176,0.0,1.0,92,0.00,,,0.00,0,weatherlink.com 1.10,2013-09-15 00:07:00,
2013-09-14 20:22:00,56.4,54.0,29.87,South,176,0.0,0.0,92,0.00,,,0.00,0,weatherlink.com 1.10,2013-09-15 00:22:00,
2013-09-14 20:37:00,56.2,54.0,29.87,South,176,0.0,0.0,92,0.00,,,0.00,0,weatherlink.com 1.10,2013-09-15 00:37:00,
2013-09-14 20:52:00,56.2,55.0,29.86,South,188,0.0,1.0,94,0.00,,,0.00,0,weatherlink.com 1.10,2013-09-15 00:52:00,
2013-09-14 21:07:00,56.4,55.0,29.86,South,188,0.0,0.0,93,0.00,,,0.00,0,weatherlink.com 1.10,2013-09-15 01:07:00,
2013-09-14 21:22:00,56.3,54.0,29.86,South,188,0.0,0.0,93,0.00,,,0.00,0,weatherlink.com 1.10,2013-09-15 01:22:00,
2013-09-14 21:37:00,56.4,55.0,29.85,SW,216,0.0,2.0,93,0.00,,,0.00,0,weatherlink.com 1.10,2013-09-15 01:37:00,
2013-09-14 21:52:00,56.5,55.0,29.85,SSW,202,0.0,1.0,93,0.00,,,0.00,0,weatherlink.com 1.10,2013-09-15 01:52:00,
2013-09-14 22:07:00,56.8,55.0,29.84,SW,228,0.0,1.0,93,0.00,,,0.00,0,weatherlink.com 1.10,2013-09-15 02:07:00,
2013-09-14 22:22:00,57.0,55.0,29.84,SW,216,0.0,1.0,92,0.00,,,0.00,0,weatherlink.com 1.10,2013-09-15 02:22:00,
2013-09-14 22:37:00,57.1,55.0,29.84,WSW,244,0.0,2.0,92,0.00,,,0.00,0,weatherlink.com 1.10,2013-09-15 02:37:00,
2013-09-14 22:52:00,57.3,55.0,29.83,SSE,147,0.0,4.0,92,0.00,,,0.00,0,weatherlink.com 1.10,2013-09-15 02:52:00,
2013-09-14 23:07:00,57.5,55.0,29.83,NNW,330,0.0,2.0,92,0.00,,,0.00,0,weatherlink.com 1.10,2013-09-15 03:07:00,
2013-09-14 23:22:00,57.2,55.0,29.82,SSW,195,0.0,2.0,92,0.00,,,0.00,0,weatherlink.com 1.10,2013-09-15 03:22:00,
2013-09-14 23:37:00,57.0,55.0,29.83,SSW,195,0.0,1.0,92,0.00,,,0.00,0,weatherlink.com 1.10,2013-09-15 03:37:00,
2013-09-14 23:52:00,57.2,55.0,29.83,SSW,195,0.0,4.0,92,0.00,,,0.00,0,weatherlink.com 1.10,2013-09-15 03:52:00,